Massack, California
Current Conditions -  °F | °C
As of 12:10 AM on Tuesday 21 Oct 2014 (Local Time) from KBLU Reporting Station
Haze Haze  
Wind Chill: 35°   Ceiling: 400
Heat Index: 39°   Visibility: 1.7mi
Dew Point: 37°   Wind: 6mph
Humidity: 93%   Direction: 170°S
Pressure: 30.09"   Gusts: NA
Location:  39.939°N, 120.918°W
Report Text: KBLU 210710Z AUTO 17005KT 1 3/4SM BR BKN004 BKN009 04/03 A3009 RMK AO2 VIS 3/4V3 T00390028
Loading
Personal Weather Stations






























Interactive Weather Map
Tropical Storm Tracking
New forecast layout! Learn more

10-Day Weather Forecast

Advertisements
Track Severe Weather on mobile